Airport ID:KJWN
Update Time (UTC):11/04/2021 05:11
Wind Speed (Knots):9
Wind Direction (Magnetic):260
Temperature (°C):14
Dew Point (°C):5
Humidity (%):56
Altimeter (inHg):29.63
Density Altitude (Feet):
Visibility:10+
Clouds (Hundreds of feet):CLR
Present Weather:
METAR:METAR KJWN 110510Z AUTO 26009KT 10SM CLR 14/05 A2963 RMK A01

The data displayed is for advisory purposes only and is not to be used for flight planning or operations.